createdAt,value
2024-02-07T00:17:43.540Z,10.79
2024-02-07T00:43:33.121Z,10.60
2024-02-07T00:49:50.070Z,10.58
2024-02-07T01:22:13.595Z,10.50
2024-02-07T01:28:41.343Z,10.46
2024-02-07T02:00:54.754Z,10.22
2024-02-07T02:38:52.789Z,10.22
2024-02-07T02:44:18.934Z,10.24
2024-02-07T02:50:20.402Z,10.26
2024-02-07T02:56:31.796Z,10.26
2024-02-07T03:02:44.090Z,10.25
2024-02-07T03:09:06.762Z,10.22
2024-02-07T03:15:17.438Z,10.18
2024-02-07T03:21:37.276Z,10.16
2024-02-07T03:27:51.755Z,10.15
2024-02-07T03:33:59.467Z,10.15
2024-02-07T03:40:24.337Z,10.12
2024-02-07T03:46:48.681Z,10.13
2024-02-07T04:28:56.767Z,9.86
2024-02-07T04:34:57.411Z,9.87
2024-02-07T04:40:32.461Z,9.87
2024-02-07T04:46:09.018Z,9.90
2024-02-07T04:51:37.823Z,9.91
2024-02-07T04:57:43.965Z,9.92
2024-02-07T05:03:49.973Z,9.93
2024-02-07T05:10:14.250Z,9.96
2024-02-07T05:15:51.596Z,9.98
2024-02-07T05:21:25.825Z,9.98
2024-02-07T05:27:10.765Z,9.99
2024-02-07T05:33:05.975Z,10.03
2024-02-07T05:38:54.414Z,10.04
2024-02-07T05:44:22.779Z,10.02
2024-02-07T05:50:24.906Z,10.01
2024-02-07T05:56:48.886Z,10.05
2024-02-07T06:02:46.647Z,10.11
2024-02-07T06:08:26.817Z,10.11
2024-02-07T06:14:19.144Z,10.11
2024-02-07T06:20:18.241Z,10.10
2024-02-07T06:25:43.225Z,10.06
2024-02-07T06:43:10.060Z,10.06
2024-02-07T07:15:22.891Z,10.07
2024-02-07T07:21:43.774Z,10.12
2024-02-07T07:28:11.017Z,10.14
2024-02-07T07:34:37.656Z,10.18
2024-02-07T07:40:43.301Z,10.26
2024-02-07T07:46:46.955Z,10.37
2024-02-07T08:04:34.953Z,10.45
2024-02-07T08:10:00.636Z,10.48
2024-02-07T08:15:10.654Z,10.46
2024-02-07T08:21:06.249Z,10.34
2024-02-07T08:27:04.603Z,9.94
2024-02-07T09:27:01.240Z,5.46
2024-02-07T09:33:01.043Z,5.46
2024-02-07T09:39:08.099Z,5.43
2024-02-07T09:45:16.422Z,5.42
2024-02-07T09:51:22.541Z,5.41
2024-02-07T11:11:00.215Z,5.10
2024-02-07T11:17:16.596Z,5.22
2024-02-07T11:23:39.884Z,5.26
2024-02-07T11:30:06.604Z,5.32
2024-02-07T11:36:47.967Z,5.29
2024-02-07T12:02:37.116Z,5.28
2024-02-07T12:14:56.572Z,5.07
2024-02-07T12:34:14.801Z,5.08
2024-02-07T13:22:10.097Z,5.31
2024-02-07T13:28:11.799Z,5.34
2024-02-07T13:34:18.859Z,5.39
2024-02-07T13:40:49.228Z,5.45
2024-02-07T13:47:08.739Z,5.53
2024-02-07T13:53:34.902Z,5.57
2024-02-07T13:59:50.266Z,5.60
2024-02-07T14:06:17.807Z,5.59
2024-02-07T14:31:10.135Z,5.25
2024-02-07T14:56:22.528Z,5.24
2024-02-07T15:02:07.142Z,5.22
2024-02-07T15:08:21.509Z,5.19
2024-02-07T15:14:21.344Z,5.18
2024-02-07T15:20:35.168Z,5.13
2024-02-07T15:26:51.468Z,5.07
2024-02-07T15:32:17.871Z,4.99
2024-02-07T15:38:13.464Z,4.94
2024-02-07T16:52:25.714Z,4.45
2024-02-07T16:58:57.360Z,4.43
2024-02-07T17:05:10.640Z,4.43
2024-02-07T17:11:13.007Z,4.42
2024-02-07T17:17:10.900Z,4.41
2024-02-07T17:22:42.910Z,4.40
2024-02-07T17:28:29.369Z,4.36
2024-02-07T17:34:33.534Z,4.33
2024-02-07T17:40:07.390Z,4.29
2024-02-07T17:46:24.503Z,4.26
2024-02-07T17:52:29.639Z,4.23
2024-02-07T17:58:30.215Z,4.21
2024-02-07T18:04:50.946Z,4.20
2024-02-07T18:10:48.240Z,4.19
2024-02-07T18:16:46.985Z,4.16
2024-02-07T18:22:04.853Z,4.14
2024-02-07T18:27:23.536Z,4.11
2024-02-07T18:32:52.502Z,4.07
2024-02-07T18:38:03.781Z,4.05
2024-02-07T18:43:09.283Z,4.03
2024-02-07T18:48:13.775Z,4.02
2024-02-07T18:53:29.400Z,4.00
2024-02-07T18:58:39.809Z,4.00
2024-02-07T19:03:59.398Z,3.98
2024-02-07T19:09:17.255Z,3.98
2024-02-07T19:15:16.366Z,3.97
2024-02-07T19:20:55.099Z,3.96
2024-02-07T19:27:07.890Z,3.95
2024-02-07T20:29:05.906Z,3.81
2024-02-07T20:35:12.184Z,3.77
2024-02-07T20:40:26.434Z,3.73
2024-02-07T20:45:41.391Z,3.69
2024-02-07T20:51:17.021Z,3.63
2024-02-07T20:57:03.605Z,3.58
2024-02-07T21:02:24.256Z,3.51
2024-02-07T21:08:05.298Z,3.44
2024-02-07T21:13:11.524Z,3.39
2024-02-07T21:18:24.613Z,3.36
2024-02-07T21:23:37.150Z,3.33
2024-02-07T21:28:44.308Z,3.29
2024-02-07T21:33:55.593Z,3.25
2024-02-07T21:39:36.069Z,3.19
2024-02-07T21:45:11.955Z,3.12
2024-02-07T21:50:28.137Z,3.07
2024-02-07T21:55:38.705Z,3.01
2024-02-07T22:00:48.940Z,2.95
2024-02-07T22:05:54.597Z,2.91
2024-02-07T22:11:05.355Z,2.87
2024-02-07T22:16:34.251Z,2.80
2024-02-07T22:21:55.237Z,2.74
2024-02-07T22:27:05.851Z,2.69
2024-02-07T22:32:17.710Z,2.62
2024-02-07T22:37:38.578Z,2.56
2024-02-07T22:42:46.197Z,2.52
2024-02-07T22:47:57.500Z,2.49
2024-02-07T22:53:05.254Z,2.48
2024-02-07T22:58:13.589Z,2.46
2024-02-07T23:03:23.240Z,2.43
2024-02-07T23:08:30.550Z,2.41
2024-02-07T23:13:36.586Z,2.39
2024-02-07T23:18:41.700Z,2.37
2024-02-07T23:23:49.881Z,2.34
2024-02-07T23:29:06.306Z,2.32
2024-02-07T23:34:19.761Z,2.32
2024-02-07T23:39:54.786Z,2.34
2024-02-07T23:45:02.401Z,2.37
2024-02-07T23:50:32.057Z,2.38
2024-02-07T23:55:41.813Z,2.39
